This is the latest recevied weather packets stored in our database for station/object W7DBO-3. If no packets are shown the sender has not sent any weather packets the latest 10 day(s).
| Time | Temp. | Humidity | Pressure | Rain* | Wind** | Luminosity | Snow |
|---|---|---|---|---|---|---|---|
| 1788152405 | 62° F | 74% | 762.3 mmHg | 0 in | - | - | - |
| 1788148805 | 62° F | 78% | 761.9 mmHg | 0 in | - | - | - |
| 1788145205 | 66° F | 70% | 760.9 mmHg | 0 in | - | - | - |
| 1788141605 | 70° F | 62% | 759.4 mmHg | 0 in | - | - | - |
| 1788138007 | 78° F | 49% | 757.4 mmHg | 0 in | - | - | - |
| 1788134405 | 82° F | 42% | 756.3 mmHg | 0 in | - | - | - |
| 1788130806 | 79° F | 50% | 757.3 mmHg | 0 in | - | - | - |
| 1788127205 | 77° F | 51% | 757.8 mmHg | 0 in | - | - | - |
| 1788123606 | 81° F | 51% | 757.6 mmHg | 0 in | - | - | - |
| 1788120006 | 75° F | 58% | 759.2 mmHg | 0 in | - | - | - |
| 1788116405 | 80° F | 54% | 758.6 mmHg | 0 in | - | - | - |
| 1788112807 | 78° F | 52% | 759.1 mmHg | 0 in | - | - | - |
| 1788109206 | 73° F | 61% | 760.4 mmHg | 0 in | - | - | - |
| 1788105606 | 67° F | 75% | 761.6 mmHg | 0 in | - | - | - |
| 1788102005 | 63° F | 86% | 762.3 mmHg | 0 in | - | - | - |
| 1788098406 | 60° F | 90% | 762.7 mmHg | 0 in | - | - | - |
| 1788094805 | 60° F | 89% | 762.1 mmHg | 0 in | - | - | - |
| 1788091206 | 61° F | 89% | 761.8 mmHg | 0 in | - | - | - |
| 1788087605 | 61° F | 88% | 761.5 mmHg | 0 in | - | - | - |
| 1788084005 | 61° F | 88% | 761.6 mmHg | 0 in | - | - | - |
| 1788080405 | 62° F | 87% | 761.5 mmHg | 0 in | - | - | - |
| 1788076805 | 63° F | 82% | 760.8 mmHg | 0 in | - | - | - |
| 1788073205 | 64° F | 84% | 761.6 mmHg | 0 in | - | - | - |
| 1788069607 | 63° F | 83% | 761.2 mmHg | 0.03 in | - | - | - |
| 1788062405 | 64° F | 77% | 761.6 mmHg | 0.06 in | - | - | - |
* Rain latest hour (hover to see other rain measurements)
** Current wind speed in m/s (hover to see current wind gust speed)